sensor_id;sensor_type;location;lat;lon;timestamp;temperature;humidity
65707;SHT31;52423;43.512;5.220;2023-02-15T00:01:52;6.74;89.36
65707;SHT31;52423;43.512;5.220;2023-02-15T00:04:19;6.76;89.35
65707;SHT31;52423;43.512;5.220;2023-02-15T00:06:46;6.92;89.04
65707;SHT31;52423;43.512;5.220;2023-02-15T00:09:11;6.99;88.39
65707;SHT31;52423;43.512;5.220;2023-02-15T00:11:37;6.84;88.65
65707;SHT31;52423;43.512;5.220;2023-02-15T00:14:17;6.83;88.48
65707;SHT31;52423;43.512;5.220;2023-02-15T00:16:44;6.83;88.85
65707;SHT31;52423;43.512;5.220;2023-02-15T00:19:11;6.78;88.81
65707;SHT31;52423;43.512;5.220;2023-02-15T00:21:37;6.74;88.96
65707;SHT31;52423;43.512;5.220;2023-02-15T00:24:05;6.76;89.03
65707;SHT31;52423;43.512;5.220;2023-02-15T00:26:31;6.74;89.13
65707;SHT31;52423;43.512;5.220;2023-02-15T00:28:57;6.78;89.09
65707;SHT31;52423;43.512;5.220;2023-02-15T00:31:26;6.92;89.12
65707;SHT31;52423;43.512;5.220;2023-02-15T00:33:52;6.98;88.65
65707;SHT31;52423;43.512;5.220;2023-02-15T00:36:18;6.94;88.66
65707;SHT31;52423;43.512;5.220;2023-02-15T00:38:43;6.98;88.74
65707;SHT31;52423;43.512;5.220;2023-02-15T00:41:09;6.98;88.58
65707;SHT31;52423;43.512;5.220;2023-02-15T00:43:35;6.95;88.83
65707;SHT31;52423;43.512;5.220;2023-02-15T00:46:01;7.05;88.64
65707;SHT31;52423;43.512;5.220;2023-02-15T00:48:27;7.04;88.70
65707;SHT31;52423;43.512;5.220;2023-02-15T00:50:55;7.05;88.84
65707;SHT31;52423;43.512;5.220;2023-02-15T00:53:21;7.07;88.44
65707;SHT31;52423;43.512;5.220;2023-02-15T00:55:47;6.99;88.95
65707;SHT31;52423;43.512;5.220;2023-02-15T00:58:13;6.99;89.01
65707;SHT31;52423;43.512;5.220;2023-02-15T01:00:40;7.01;89.28
65707;SHT31;52423;43.512;5.220;2023-02-15T01:03:06;6.95;89.38
65707;SHT31;52423;43.512;5.220;2023-02-15T01:05:31;6.95;89.60
65707;SHT31;52423;43.512;5.220;2023-02-15T01:07:58;6.94;89.72
65707;SHT31;52423;43.512;5.220;2023-02-15T01:10:24;6.98;89.84
65707;SHT31;52423;43.512;5.220;2023-02-15T01:12:50;7.07;89.49
65707;SHT31;52423;43.512;5.220;2023-02-15T01:15:16;7.07;89.42
65707;SHT31;52423;43.512;5.220;2023-02-15T01:17:42;7.07;89.25
65707;SHT31;52423;43.512;5.220;2023-02-15T01:20:09;7.09;89.16
65707;SHT31;52423;43.512;5.220;2023-02-15T01:22:34;7.09;89.25
65707;SHT31;52423;43.512;5.220;2023-02-15T01:25:00;7.05;88.99
65707;SHT31;52423;43.512;5.220;2023-02-15T01:27:25;7.07;88.74
65707;SHT31;52423;43.512;5.220;2023-02-15T01:29:50;6.97;88.89
65707;SHT31;52423;43.512;5.220;2023-02-15T01:32:16;6.94;88.93
65707;SHT31;52423;43.512;5.220;2023-02-15T01:34:41;6.88;89.00
65707;SHT31;52423;43.512;5.220;2023-02-15T01:37:07;6.88;88.97
65707;SHT31;52423;43.512;5.220;2023-02-15T01:39:32;6.94;88.63
65707;SHT31;52423;43.512;5.220;2023-02-15T01:41:57;6.81;88.73
65707;SHT31;52423;43.512;5.220;2023-02-15T01:44:49;6.74;88.97
65707;SHT31;52423;43.512;5.220;2023-02-15T01:50:28;6.76;88.59
65707;SHT31;52423;43.512;5.220;2023-02-15T01:55:33;6.58;89.01
65707;SHT31;52423;43.512;5.220;2023-02-15T01:58:01;6.50;89.12
65707;SHT31;52423;43.512;5.220;2023-02-15T02:00:28;6.53;89.11
65707;SHT31;52423;43.512;5.220;2023-02-15T02:02:55;6.53;89.38
65707;SHT31;52423;43.512;5.220;2023-02-15T02:05:20;6.54;89.12
65707;SHT31;52423;43.512;5.220;2023-02-15T02:07:46;6.56;89.17
65707;SHT31;52423;43.512;5.220;2023-02-15T02:10:16;6.53;89.28
65707;SHT31;52423;43.512;5.220;2023-02-15T02:12:44;6.53;89.14
65707;SHT31;52423;43.512;5.220;2023-02-15T02:15:11;6.56;89.26
65707;SHT31;52423;43.512;5.220;2023-02-15T02:17:52;6.57;89.09
65707;SHT31;52423;43.512;5.220;2023-02-15T02:34:05;6.73;88.22
65707;SHT31;52423;43.512;5.220;2023-02-15T02:36:47;6.73;88.29
65707;SHT31;52423;43.512;5.220;2023-02-15T02:42:16;6.66;88.61
65707;SHT31;52423;43.512;5.220;2023-02-15T02:44:44;6.61;88.59
65707;SHT31;52423;43.512;5.220;2023-02-15T02:49:43;6.60;88.67
65707;SHT31;52423;43.512;5.220;2023-02-15T02:52:35;6.57;88.75
65707;SHT31;52423;43.512;5.220;2023-02-15T02:58:15;6.56;88.50
65707;SHT31;52423;43.512;5.220;2023-02-15T03:00:48;6.51;88.37
65707;SHT31;52423;43.512;5.220;2023-02-15T03:03:25;6.49;88.68
65707;SHT31;52423;43.512;5.220;2023-02-15T03:05:56;6.40;88.25
65707;SHT31;52423;43.512;5.220;2023-02-15T03:08:25;6.34;88.62
65707;SHT31;52423;43.512;5.220;2023-02-15T03:10:55;6.25;88.85
65707;SHT31;52423;43.512;5.220;2023-02-15T03:13:22;6.25;89.19
65707;SHT31;52423;43.512;5.220;2023-02-15T03:15:48;6.15;89.40
65707;SHT31;52423;43.512;5.220;2023-02-15T03:18:38;6.20;89.22
65707;SHT31;52423;43.512;5.220;2023-02-15T03:21:05;6.18;89.38
65707;SHT31;52423;43.512;5.220;2023-02-15T03:23:32;6.19;89.35
65707;SHT31;52423;43.512;5.220;2023-02-15T03:26:01;6.13;89.17
65707;SHT31;52423;43.512;5.220;2023-02-15T03:28:40;6.18;88.85
65707;SHT31;52423;43.512;5.220;2023-02-15T03:31:08;6.12;88.95
65707;SHT31;52423;43.512;5.220;2023-02-15T03:33:40;6.12;88.85
65707;SHT31;52423;43.512;5.220;2023-02-15T03:38:55;5.95;89.09
65707;SHT31;52423;43.512;5.220;2023-02-15T03:41:31;5.81;89.41
65707;SHT31;52423;43.512;5.220;2023-02-15T03:44:04;5.78;89.78
65707;SHT31;52423;43.512;5.220;2023-02-15T03:46:47;5.74;89.44
65707;SHT31;52423;43.512;5.220;2023-02-15T03:49:21;5.68;89.56
65707;SHT31;52423;43.512;5.220;2023-02-15T03:51:50;5.64;89.77
65707;SHT31;52423;43.512;5.220;2023-02-15T03:54:24;5.62;89.66
65707;SHT31;52423;43.512;5.220;2023-02-15T03:57:22;5.65;89.43
65707;SHT31;52423;43.512;5.220;2023-02-15T04:00:23;5.59;89.46
65707;SHT31;52423;43.512;5.220;2023-02-15T04:06:00;5.52;89.42
65707;SHT31;52423;43.512;5.220;2023-02-15T04:08:27;5.43;89.69
65707;SHT31;52423;43.512;5.220;2023-02-15T04:11:12;5.43;89.75
65707;SHT31;52423;43.512;5.220;2023-02-15T04:13:38;5.43;89.83
65707;SHT31;52423;43.512;5.220;2023-02-15T04:16:03;5.50;89.63
65707;SHT31;52423;43.512;5.220;2023-02-15T04:18:42;5.48;89.83
65707;SHT31;52423;43.512;5.220;2023-02-15T04:21:29;5.52;89.35
65707;SHT31;52423;43.512;5.220;2023-02-15T04:24:13;5.52;89.95
65707;SHT31;52423;43.512;5.220;2023-02-15T04:26:57;5.57;90.19
65707;SHT31;52423;43.512;5.220;2023-02-15T04:29:24;5.61;89.97
65707;SHT31;52423;43.512;5.220;2023-02-15T04:31:50;5.62;90.04
65707;SHT31;52423;43.512;5.220;2023-02-15T04:34:16;5.68;90.08
65707;SHT31;52423;43.512;5.220;2023-02-15T04:36:41;5.74;90.04
65707;SHT31;52423;43.512;5.220;2023-02-15T04:39:07;5.72;89.97
65707;SHT31;52423;43.512;5.220;2023-02-15T04:41:33;5.75;89.91
65707;SHT31;52423;43.512;5.220;2023-02-15T04:43:59;5.74;89.91
65707;SHT31;52423;43.512;5.220;2023-02-15T04:46:26;5.77;89.79
65707;SHT31;52423;43.512;5.220;2023-02-15T04:48:52;5.72;89.84
65707;SHT31;52423;43.512;5.220;2023-02-15T04:51:17;5.77;89.48
65707;SHT31;52423;43.512;5.220;2023-02-15T04:53:42;5.75;89.63
65707;SHT31;52423;43.512;5.220;2023-02-15T04:56:08;5.78;89.82
65707;SHT31;52423;43.512;5.220;2023-02-15T04:58:33;5.67;89.60
65707;SHT31;52423;43.512;5.220;2023-02-15T05:01:00;5.58;89.76
65707;SHT31;52423;43.512;5.220;2023-02-15T05:03:25;5.50;89.94
65707;SHT31;52423;43.512;5.220;2023-02-15T05:05:51;5.50;90.14
65707;SHT31;52423;43.512;5.220;2023-02-15T05:08:16;5.50;90.42
65707;SHT31;52423;43.512;5.220;2023-02-15T05:10:42;5.54;90.41
65707;SHT31;52423;43.512;5.220;2023-02-15T05:13:07;5.54;91.04
65707;SHT31;52423;43.512;5.220;2023-02-15T05:15:33;5.51;90.98
65707;SHT31;52423;43.512;5.220;2023-02-15T05:17:58;5.46;90.86
65707;SHT31;52423;43.512;5.220;2023-02-15T05:20:24;5.36;90.76
65707;SHT31;52423;43.512;5.220;2023-02-15T05:22:53;5.37;90.79
65707;SHT31;52423;43.512;5.220;2023-02-15T05:25:18;5.36;91.08
65707;SHT31;52423;43.512;5.220;2023-02-15T05:28:02;5.37;91.24
65707;SHT31;52423;43.512;5.220;2023-02-15T05:30:48;5.41;91.32
65707;SHT31;52423;43.512;5.220;2023-02-15T05:33:14;5.46;91.09
65707;SHT31;52423;43.512;5.220;2023-02-15T05:35:39;5.48;91.53
65707;SHT31;52423;43.512;5.220;2023-02-15T05:38:05;5.46;91.70
65707;SHT31;52423;43.512;5.220;2023-02-15T05:40:30;5.46;91.72
65707;SHT31;52423;43.512;5.220;2023-02-15T05:42:56;5.40;91.92
65707;SHT31;52423;43.512;5.220;2023-02-15T05:45:22;5.43;92.05
65707;SHT31;52423;43.512;5.220;2023-02-15T05:47:47;5.43;91.90
65707;SHT31;52423;43.512;5.220;2023-02-15T05:50:12;5.40;91.69
65707;SHT31;52423;43.512;5.220;2023-02-15T05:52:38;5.38;91.78
65707;SHT31;52423;43.512;5.220;2023-02-15T05:55:05;5.43;91.53
65707;SHT31;52423;43.512;5.220;2023-02-15T05:57:30;5.40;91.90
65707;SHT31;52423;43.512;5.220;2023-02-15T05:59:56;5.44;92.07
65707;SHT31;52423;43.512;5.220;2023-02-15T06:02:21;5.48;91.60
65707;SHT31;52423;43.512;5.220;2023-02-15T06:04:47;5.44;92.28
65707;SHT31;52423;43.512;5.220;2023-02-15T06:07:12;5.43;92.13
65707;SHT31;52423;43.512;5.220;2023-02-15T06:09:37;5.43;92.10
65707;SHT31;52423;43.512;5.220;2023-02-15T06:12:03;5.41;92.25
65707;SHT31;52423;43.512;5.220;2023-02-15T06:14:28;5.46;91.89
65707;SHT31;52423;43.512;5.220;2023-02-15T06:16:54;5.43;92.43
65707;SHT31;52423;43.512;5.220;2023-02-15T06:19:19;5.44;92.06
65707;SHT31;52423;43.512;5.220;2023-02-15T06:21:46;5.46;91.60
65707;SHT31;52423;43.512;5.220;2023-02-15T06:24:11;5.43;91.68
65707;SHT31;52423;43.512;5.220;2023-02-15T06:26:37;5.34;91.69
65707;SHT31;52423;43.512;5.220;2023-02-15T06:29:02;5.33;91.33
65707;SHT31;52423;43.512;5.220;2023-02-15T06:31:28;5.28;91.34
65707;SHT31;52423;43.512;5.220;2023-02-15T06:33:54;5.23;91.57
65707;SHT31;52423;43.512;5.220;2023-02-15T06:36:30;5.23;91.46
65707;SHT31;52423;43.512;5.220;2023-02-15T06:38:56;5.17;91.65
65707;SHT31;52423;43.512;5.220;2023-02-15T06:41:22;5.15;91.58
65707;SHT31;52423;43.512;5.220;2023-02-15T06:43:48;5.12;91.49
65707;SHT31;52423;43.512;5.220;2023-02-15T06:46:13;5.16;91.64
65707;SHT31;52423;43.512;5.220;2023-02-15T06:48:39;5.17;91.25
65707;SHT31;52423;43.512;5.220;2023-02-15T06:51:04;5.07;91.51
65707;SHT31;52423;43.512;5.220;2023-02-15T06:53:30;5.10;91.43
65707;SHT31;52423;43.512;5.220;2023-02-15T06:56:06;5.06;91.60
65707;SHT31;52423;43.512;5.220;2023-02-15T06:58:34;5.10;91.58
65707;SHT31;52423;43.512;5.220;2023-02-15T07:01:00;5.13;91.59
65707;SHT31;52423;43.512;5.220;2023-02-15T07:03:25;5.07;91.61
65707;SHT31;52423;43.512;5.220;2023-02-15T07:05:55;5.07;91.72
65707;SHT31;52423;43.512;5.220;2023-02-15T07:08:21;5.17;91.78
65707;SHT31;52423;43.512;5.220;2023-02-15T07:10:48;5.20;91.58
65707;SHT31;52423;43.512;5.220;2023-02-15T07:13:15;5.15;91.92
65707;SHT31;52423;43.512;5.220;2023-02-15T07:15:41;5.17;91.94
65707;SHT31;52423;43.512;5.220;2023-02-15T07:18:07;5.16;91.71
65707;SHT31;52423;43.512;5.220;2023-02-15T07:20:34;5.20;91.77
65707;SHT31;52423;43.512;5.220;2023-02-15T07:23:01;5.27;91.74
65707;SHT31;52423;43.512;5.220;2023-02-15T07:25:26;5.34;91.69
65707;SHT31;52423;43.512;5.220;2023-02-15T07:27:56;5.34;91.87
65707;SHT31;52423;43.512;5.220;2023-02-15T07:30:22;5.36;91.84
65707;SHT31;52423;43.512;5.220;2023-02-15T07:32:47;5.43;91.79
65707;SHT31;52423;43.512;5.220;2023-02-15T07:35:32;5.54;91.51
65707;SHT31;52423;43.512;5.220;2023-02-15T07:37:58;5.61;91.39
65707;SHT31;52423;43.512;5.220;2023-02-15T07:40:23;5.68;91.35
65707;SHT31;52423;43.512;5.220;2023-02-15T07:42:49;5.79;90.91
65707;SHT31;52423;43.512;5.220;2023-02-15T07:45:17;5.87;90.60
65707;SHT31;52423;43.512;5.220;2023-02-15T07:47:43;6.01;90.16
65707;SHT31;52423;43.512;5.220;2023-02-15T07:50:08;6.25;89.77
65707;SHT31;52423;43.512;5.220;2023-02-15T07:52:34;6.37;88.94
65707;SHT31;52423;43.512;5.220;2023-02-15T07:54:59;6.53;88.42
65707;SHT31;52423;43.512;5.220;2023-02-15T07:57:24;6.61;88.00
65707;SHT31;52423;43.512;5.220;2023-02-15T07:59:50;6.61;87.80
65707;SHT31;52423;43.512;5.220;2023-02-15T08:02:15;6.68;87.43
65707;SHT31;52423;43.512;5.220;2023-02-15T08:04:41;6.90;87.12
65707;SHT31;52423;43.512;5.220;2023-02-15T08:07:06;6.90;86.83
65707;SHT31;52423;43.512;5.220;2023-02-15T08:09:32;7.05;86.21
65707;SHT31;52423;43.512;5.220;2023-02-15T08:11:57;7.48;86.16
65707;SHT31;52423;43.512;5.220;2023-02-15T08:14:23;7.45;84.79
65707;SHT31;52423;43.512;5.220;2023-02-15T08:16:59;7.59;85.02
65707;SHT31;52423;43.512;5.220;2023-02-15T08:19:32;7.76;83.81
65707;SHT31;52423;43.512;5.220;2023-02-15T08:21:59;7.63;84.47
65707;SHT31;52423;43.512;5.220;2023-02-15T08:24:28;7.76;84.11
65707;SHT31;52423;43.512;5.220;2023-02-15T08:26:53;7.90;83.98
65707;SHT31;52423;43.512;5.220;2023-02-15T08:29:21;8.34;83.77
65707;SHT31;52423;43.512;5.220;2023-02-15T08:31:53;8.30;82.43
65707;SHT31;52423;43.512;5.220;2023-02-15T08:34:20;8.61;81.53
65707;SHT31;52423;43.512;5.220;2023-02-15T08:36:46;8.72;82.03
65707;SHT31;52423;43.512;5.220;2023-02-15T08:39:12;8.38;81.60
65707;SHT31;52423;43.512;5.220;2023-02-15T08:41:43;8.58;80.95
65707;SHT31;52423;43.512;5.220;2023-02-15T08:44:09;8.56;82.55
65707;SHT31;52423;43.512;5.220;2023-02-15T08:46:39;8.79;81.41
65707;SHT31;52423;43.512;5.220;2023-02-15T08:49:04;8.46;81.41
65707;SHT31;52423;43.512;5.220;2023-02-15T08:51:36;8.80;80.31
65707;SHT31;52423;43.512;5.220;2023-02-15T08:54:07;9.20;79.69
65707;SHT31;52423;43.512;5.220;2023-02-15T08:56:35;9.17;80.39
65707;SHT31;52423;43.512;5.220;2023-02-15T08:59:02;9.19;79.12
65707;SHT31;52423;43.512;5.220;2023-02-15T09:01:30;9.19;79.31
65707;SHT31;52423;43.512;5.220;2023-02-15T09:03:58;9.54;79.90
65707;SHT31;52423;43.512;5.220;2023-02-15T09:06:25;9.16;79.11
65707;SHT31;52423;43.512;5.220;2023-02-15T09:08:51;9.67;78.90
65707;SHT31;52423;43.512;5.220;2023-02-15T09:11:19;9.57;77.76
65707;SHT31;52423;43.512;5.220;2023-02-15T09:13:51;9.72;79.06
65707;SHT31;52423;43.512;5.220;2023-02-15T09:16:17;10.36;75.85
65707;SHT31;52423;43.512;5.220;2023-02-15T09:18:43;9.91;76.48
65707;SHT31;52423;43.512;5.220;2023-02-15T09:21:16;10.23;75.59
65707;SHT31;52423;43.512;5.220;2023-02-15T09:23:44;10.50;75.25
65707;SHT31;52423;43.512;5.220;2023-02-15T09:26:14;10.17;75.48
65707;SHT31;52423;43.512;5.220;2023-02-15T09:28:40;10.61;75.19
65707;SHT31;52423;43.512;5.220;2023-02-15T09:31:06;10.92;73.23
65707;SHT31;52423;43.512;5.220;2023-02-15T09:33:33;10.73;74.97
65707;SHT31;52423;43.512;5.220;2023-02-15T09:35:59;10.32;75.82
65707;SHT31;52423;43.512;5.220;2023-02-15T09:38:25;10.23;75.39
65707;SHT31;52423;43.512;5.220;2023-02-15T09:46:32;10.77;74.11
65707;SHT31;52423;43.512;5.220;2023-02-15T09:49:17;10.94;73.55
65707;SHT31;52423;43.512;5.220;2023-02-15T09:57:26;11.79;69.84
65707;SHT31;52423;43.512;5.220;2023-02-15T10:11:26;12.42;68.69
65707;SHT31;52423;43.512;5.220;2023-02-15T10:14:29;12.04;69.82
65707;SHT31;52423;43.512;5.220;2023-02-15T10:25:31;12.54;68.32
65707;SHT31;52423;43.512;5.220;2023-02-15T10:28:05;12.78;68.62
65707;SHT31;52423;43.512;5.220;2023-02-15T10:30:44;12.85;67.54
65707;SHT31;52423;43.512;5.220;2023-02-15T10:33:39;12.79;67.32
65707;SHT31;52423;43.512;5.220;2023-02-15T10:58:28;13.19;67.13
65707;SHT31;52423;43.512;5.220;2023-02-15T11:01:13;12.38;69.22
65707;SHT31;52423;43.512;5.220;2023-02-15T11:04:14;12.34;70.45
65707;SHT31;52423;43.512;5.220;2023-02-15T11:06:47;12.58;69.87
65707;SHT31;52423;43.512;5.220;2023-02-15T11:09:17;12.83;68.88
65707;SHT31;52423;43.512;5.220;2023-02-15T11:11:49;12.89;69.39
65707;SHT31;52423;43.512;5.220;2023-02-15T11:16:49;12.82;69.89
65707;SHT31;52423;43.512;5.220;2023-02-15T11:19:26;12.91;69.03
65707;SHT31;52423;43.512;5.220;2023-02-15T11:21:59;13.09;69.55
65707;SHT31;52423;43.512;5.220;2023-02-15T11:24:28;13.04;68.75
65707;SHT31;52423;43.512;5.220;2023-02-15T11:26:59;13.00;68.72
65707;SHT31;52423;43.512;5.220;2023-02-15T11:29:38;13.09;69.45
65707;SHT31;52423;43.512;5.220;2023-02-15T11:32:19;13.06;68.87
65707;SHT31;52423;43.512;5.220;2023-02-15T11:37:33;12.73;69.58
65707;SHT31;52423;43.512;5.220;2023-02-15T11:40:02;12.99;69.70
65707;SHT31;52423;43.512;5.220;2023-02-15T11:42:31;12.99;68.99
65707;SHT31;52423;43.512;5.220;2023-02-15T11:45:06;13.12;68.93
65707;SHT31;52423;43.512;5.220;2023-02-15T11:47:32;13.16;68.70
65707;SHT31;52423;43.512;5.220;2023-02-15T11:49:59;13.36;69.72
65707;SHT31;52423;43.512;5.220;2023-02-15T11:52:24;13.24;68.96
65707;SHT31;52423;43.512;5.220;2023-02-15T11:54:51;13.41;68.65
65707;SHT31;52423;43.512;5.220;2023-02-15T11:57:31;13.33;68.27
65707;SHT31;52423;43.512;5.220;2023-02-15T12:00:30;13.36;68.76
65707;SHT31;52423;43.512;5.220;2023-02-15T12:02:53;13.36;69.36
65707;SHT31;52423;43.512;5.220;2023-02-15T12:05:21;13.13;69.81
65707;SHT31;52423;43.512;5.220;2023-02-15T12:07:52;12.93;69.70
65707;SHT31;52423;43.512;5.220;2023-02-15T12:10:26;12.78;69.54
65707;SHT31;52423;43.512;5.220;2023-02-15T12:13:09;12.86;70.34
65707;SHT31;52423;43.512;5.220;2023-02-15T12:15:35;12.92;69.69
65707;SHT31;52423;43.512;5.220;2023-02-15T12:18:01;12.86;69.70
65707;SHT31;52423;43.512;5.220;2023-02-15T12:20:34;12.79;69.36
65707;SHT31;52423;43.512;5.220;2023-02-15T12:23:08;13.02;69.23
65707;SHT31;52423;43.512;5.220;2023-02-15T12:25:53;13.20;68.31
65707;SHT31;52423;43.512;5.220;2023-02-15T12:28:32;13.28;68.61
65707;SHT31;52423;43.512;5.220;2023-02-15T12:30:59;13.09;67.91
65707;SHT31;52423;43.512;5.220;2023-02-15T12:33:56;12.89;68.27
65707;SHT31;52423;43.512;5.220;2023-02-15T12:36:33;12.88;69.07
65707;SHT31;52423;43.512;5.220;2023-02-15T12:41:38;13.03;69.15
65707;SHT31;52423;43.512;5.220;2023-02-15T12:44:23;13.03;68.60
65707;SHT31;52423;43.512;5.220;2023-02-15T12:47:10;13.06;68.23
65707;SHT31;52423;43.512;5.220;2023-02-15T12:49:43;13.24;67.85
65707;SHT31;52423;43.512;5.220;2023-02-15T12:54:46;13.32;67.56
65707;SHT31;52423;43.512;5.220;2023-02-15T12:57:22;13.40;66.37
65707;SHT31;52423;43.512;5.220;2023-02-15T12:59:51;13.20;67.90
65707;SHT31;52423;43.512;5.220;2023-02-15T13:02:27;13.09;66.97
65707;SHT31;52423;43.512;5.220;2023-02-15T13:04:53;13.16;67.52
65707;SHT31;52423;43.512;5.220;2023-02-15T13:07:20;13.20;67.40
65707;SHT31;52423;43.512;5.220;2023-02-15T13:09:47;13.22;67.69
65707;SHT31;52423;43.512;5.220;2023-02-15T13:12:23;13.27;67.27
65707;SHT31;52423;43.512;5.220;2023-02-15T13:14:52;13.22;67.76
65707;SHT31;52423;43.512;5.220;2023-02-15T13:17:28;13.23;66.98
65707;SHT31;52423;43.512;5.220;2023-02-15T13:20:06;13.26;67.20
65707;SHT31;52423;43.512;5.220;2023-02-15T13:22:40;13.32;66.31
65707;SHT31;52423;43.512;5.220;2023-02-15T13:25:17;13.48;67.08
65707;SHT31;52423;43.512;5.220;2023-02-15T13:27:44;13.53;67.27
65707;SHT31;52423;43.512;5.220;2023-02-15T13:30:35;13.85;66.02
65707;SHT31;52423;43.512;5.220;2023-02-15T13:33:06;13.50;65.40
65707;SHT31;52423;43.512;5.220;2023-02-15T13:35:54;13.57;64.58
65707;SHT31;52423;43.512;5.220;2023-02-15T13:41:15;13.75;65.54
65707;SHT31;52423;43.512;5.220;2023-02-15T13:46:48;14.04;65.56
65707;SHT31;52423;43.512;5.220;2023-02-15T13:52:22;13.67;65.41
65707;SHT31;52423;43.512;5.220;2023-02-15T14:03:02;13.71;64.43
65707;SHT31;52423;43.512;5.220;2023-02-15T14:08:42;13.58;63.65
65707;SHT31;52423;43.512;5.220;2023-02-15T14:16:30;13.70;63.98
65707;SHT31;52423;43.512;5.220;2023-02-15T14:27:05;13.72;63.49
65707;SHT31;52423;43.512;5.220;2023-02-15T14:30:02;13.74;62.97
65707;SHT31;52423;43.512;5.220;2023-02-15T14:32:53;13.82;62.78
65707;SHT31;52423;43.512;5.220;2023-02-15T14:35:22;13.84;63.04
65707;SHT31;52423;43.512;5.220;2023-02-15T14:38:01;13.89;62.90
65707;SHT31;52423;43.512;5.220;2023-02-15T14:43:33;13.89;63.14
65707;SHT31;52423;43.512;5.220;2023-02-15T14:48:47;13.86;62.88
65707;SHT31;52423;43.512;5.220;2023-02-15T14:54:10;13.78;62.84
65707;SHT31;52423;43.512;5.220;2023-02-15T14:56:36;13.77;61.89
65707;SHT31;52423;43.512;5.220;2023-02-15T14:59:18;13.79;63.58
65707;SHT31;52423;43.512;5.220;2023-02-15T15:02:15;13.77;63.34
65707;SHT31;52423;43.512;5.220;2023-02-15T15:04:45;13.72;62.90
65707;SHT31;52423;43.512;5.220;2023-02-15T15:07:20;13.75;63.07
65707;SHT31;52423;43.512;5.220;2023-02-15T15:09:59;13.58;63.95
65707;SHT31;52423;43.512;5.220;2023-02-15T15:14:52;13.41;64.69
65707;SHT31;52423;43.512;5.220;2023-02-15T15:20:14;13.28;64.63
65707;SHT31;52423;43.512;5.220;2023-02-15T15:25:50;13.24;65.66
65707;SHT31;52423;43.512;5.220;2023-02-15T15:31:06;13.07;65.85
65707;SHT31;52423;43.512;5.220;2023-02-15T15:41:43;12.73;66.98
65707;SHT31;52423;43.512;5.220;2023-02-15T15:44:40;12.58;67.65
65707;SHT31;52423;43.512;5.220;2023-02-15T15:47:33;12.56;68.16
65707;SHT31;52423;43.512;5.220;2023-02-15T15:50:11;12.41;68.24
65707;SHT31;52423;43.512;5.220;2023-02-15T15:52:41;12.35;69.06
65707;SHT31;52423;43.512;5.220;2023-02-15T15:55:21;12.28;69.30
65707;SHT31;52423;43.512;5.220;2023-02-15T15:57:51;12.16;70.01
65707;SHT31;52423;43.512;5.220;2023-02-15T16:00:40;12.08;69.76
65707;SHT31;52423;43.512;5.220;2023-02-15T16:03:14;12.04;70.53
65707;SHT31;52423;43.512;5.220;2023-02-15T16:05:41;11.97;70.77
65707;SHT31;52423;43.512;5.220;2023-02-15T16:08:06;11.94;70.70
65707;SHT31;52423;43.512;5.220;2023-02-15T16:10:33;11.86;71.13
65707;SHT31;52423;43.512;5.220;2023-02-15T16:13:00;11.74;71.33
65707;SHT31;52423;43.512;5.220;2023-02-15T16:15:34;11.66;71.72
65707;SHT31;52423;43.512;5.220;2023-02-15T16:18:00;11.63;72.11
65707;SHT31;52423;43.512;5.220;2023-02-15T16:20:29;11.58;72.38
65707;SHT31;52423;43.512;5.220;2023-02-15T16:28:31;11.44;72.72
65707;SHT31;52423;43.512;5.220;2023-02-15T16:31:11;11.40;72.68
65707;SHT31;52423;43.512;5.220;2023-02-15T16:33:39;11.38;73.09
65707;SHT31;52423;43.512;5.220;2023-02-15T16:36:05;11.36;74.18
65707;SHT31;52423;43.512;5.220;2023-02-15T16:41:08;11.26;73.95
65707;SHT31;52423;43.512;5.220;2023-02-15T16:43:37;11.14;74.91
65707;SHT31;52423;43.512;5.220;2023-02-15T16:46:05;11.05;74.92
65707;SHT31;52423;43.512;5.220;2023-02-15T16:48:32;11.02;75.59
65707;SHT31;52423;43.512;5.220;2023-02-15T16:50:59;10.82;75.70
65707;SHT31;52423;43.512;5.220;2023-02-15T16:53:28;10.68;76.10
65707;SHT31;52423;43.512;5.220;2023-02-15T16:55:59;10.63;76.71
65707;SHT31;52423;43.512;5.220;2023-02-15T16:58:43;10.53;76.84
65707;SHT31;52423;43.512;5.220;2023-02-15T17:01:11;10.37;77.31
65707;SHT31;52423;43.512;5.220;2023-02-15T17:03:39;10.33;77.37
65707;SHT31;52423;43.512;5.220;2023-02-15T17:06:21;10.22;77.55
65707;SHT31;52423;43.512;5.220;2023-02-15T17:08:47;10.12;77.87
65707;SHT31;52423;43.512;5.220;2023-02-15T17:11:21;10.10;78.54
65707;SHT31;52423;43.512;5.220;2023-02-15T17:16:32;10.01;78.17
65707;SHT31;52423;43.512;5.220;2023-02-15T17:19:02;9.99;77.92
65707;SHT31;52423;43.512;5.220;2023-02-15T17:21:40;9.83;77.48
65707;SHT31;52423;43.512;5.220;2023-02-15T17:24:35;9.75;77.55
65707;SHT31;52423;43.512;5.220;2023-02-15T17:27:03;9.82;78.13
65707;SHT31;52423;43.512;5.220;2023-02-15T17:31:55;9.75;77.95
65707;SHT31;52423;43.512;5.220;2023-02-15T17:34:42;9.68;78.05
65707;SHT31;52423;43.512;5.220;2023-02-15T17:40:23;9.54;79.16
65707;SHT31;52423;43.512;5.220;2023-02-15T17:42:50;9.51;79.22
65707;SHT31;52423;43.512;5.220;2023-02-15T17:45:16;9.48;78.72
65707;SHT31;52423;43.512;5.220;2023-02-15T17:47:42;9.34;79.20
65707;SHT31;52423;43.512;5.220;2023-02-15T17:50:19;9.28;79.24
65707;SHT31;52423;43.512;5.220;2023-02-15T17:52:45;9.23;79.74
65707;SHT31;52423;43.512;5.220;2023-02-15T17:55:16;9.21;79.32
65707;SHT31;52423;43.512;5.220;2023-02-15T17:58:11;9.09;79.43
65707;SHT31;52423;43.512;5.220;2023-02-15T18:00:56;8.92;79.31
65707;SHT31;52423;43.512;5.220;2023-02-15T18:03:48;8.82;79.89
65707;SHT31;52423;43.512;5.220;2023-02-15T18:06:34;8.77;80.21
65707;SHT31;52423;43.512;5.220;2023-02-15T18:09:20;8.65;80.61
65707;SHT31;52423;43.512;5.220;2023-02-15T18:12:28;8.65;80.82
65707;SHT31;52423;43.512;5.220;2023-02-15T18:14:55;8.65;80.02
65707;SHT31;52423;43.512;5.220;2023-02-15T18:17:26;8.65;80.65
65707;SHT31;52423;43.512;5.220;2023-02-15T18:19:52;8.56;80.86
65707;SHT31;52423;43.512;5.220;2023-02-15T18:22:18;8.55;80.96
65707;SHT31;52423;43.512;5.220;2023-02-15T18:24:45;8.53;80.98
65707;SHT31;52423;43.512;5.220;2023-02-15T18:27:12;8.44;80.98
65707;SHT31;52423;43.512;5.220;2023-02-15T18:29:38;8.42;81.02
65707;SHT31;52423;43.512;5.220;2023-02-15T18:32:07;8.41;81.11
65707;SHT31;52423;43.512;5.220;2023-02-15T18:34:38;8.35;80.76
65707;SHT31;52423;43.512;5.220;2023-02-15T18:37:09;8.28;81.17
65707;SHT31;52423;43.512;5.220;2023-02-15T18:39:37;8.25;81.18
65707;SHT31;52423;43.512;5.220;2023-02-15T18:42:19;8.20;81.38
65707;SHT31;52423;43.512;5.220;2023-02-15T18:44:44;8.14;81.75
65707;SHT31;52423;43.512;5.220;2023-02-15T18:47:10;8.07;81.53
65707;SHT31;52423;43.512;5.220;2023-02-15T18:49:35;8.04;81.81
65707;SHT31;52423;43.512;5.220;2023-02-15T18:52:01;7.90;81.55
65707;SHT31;52423;43.512;5.220;2023-02-15T18:54:27;7.80;82.17
65707;SHT31;52423;43.512;5.220;2023-02-15T18:56:57;7.70;82.51
65707;SHT31;52423;43.512;5.220;2023-02-15T18:59:23;7.69;82.77